sensor_id;sensor_type;location;lat;lon;timestamp;P1;durP1;ratioP1;P2;durP2;ratioP2
58774;SDS011;44545;47.480;19.024;2023-06-24T00:02:16;671.90;;;638.00;;
58774;SDS011;44545;47.480;19.024;2023-06-24T00:05:19;663.08;;;629.95;;
58774;SDS011;44545;47.480;19.024;2023-06-24T00:08:21;680.20;;;645.85;;
58774;SDS011;44545;47.480;19.024;2023-06-24T00:11:24;674.83;;;640.55;;
58774;SDS011;44545;47.480;19.024;2023-06-24T00:14:27;666.03;;;632.72;;
58774;SDS011;44545;47.480;19.024;2023-06-24T00:17:30;669.05;;;635.60;;
58774;SDS011;44545;47.480;19.024;2023-06-24T00:20:32;662.97;;;629.90;;
58774;SDS011;44545;47.480;19.024;2023-06-24T00:23:36;663.25;;;630.08;;
58774;SDS011;44545;47.480;19.024;2023-06-24T00:26:38;671.37;;;637.85;;
58774;SDS011;44545;47.480;19.024;2023-06-24T00:29:40;674.67;;;640.78;;
58774;SDS011;44545;47.480;19.024;2023-06-24T00:32:43;672.53;;;638.87;;
58774;SDS011;44545;47.480;19.024;2023-06-24T00:35:46;675.33;;;641.33;;
58774;SDS011;44545;47.480;19.024;2023-06-24T00:38:49;691.28;;;656.28;;
58774;SDS011;44545;47.480;19.024;2023-06-24T00:41:51;672.87;;;639.35;;
58774;SDS011;44545;47.480;19.024;2023-06-24T00:44:55;669.62;;;636.30;;
58774;SDS011;44545;47.480;19.024;2023-06-24T00:47:58;665.78;;;632.55;;
58774;SDS011;44545;47.480;19.024;2023-06-24T00:51:01;659.85;;;627.03;;
58774;SDS011;44545;47.480;19.024;2023-06-24T00:54:03;667.37;;;634.13;;
58774;SDS011;44545;47.480;19.024;2023-06-24T00:57:06;657.05;;;623.95;;
58774;SDS011;44545;47.480;19.024;2023-06-24T01:00:09;661.95;;;628.55;;
58774;SDS011;44545;47.480;19.024;2023-06-24T01:03:16;674.72;;;640.60;;
58774;SDS011;44545;47.480;19.024;2023-06-24T01:06:18;661.50;;;628.70;;
58774;SDS011;44545;47.480;19.024;2023-06-24T01:09:20;674.45;;;640.53;;
58774;SDS011;44545;47.480;19.024;2023-06-24T01:12:23;675.17;;;641.53;;
58774;SDS011;44545;47.480;19.024;2023-06-24T01:15:25;668.00;;;634.30;;
58774;SDS011;44545;47.480;19.024;2023-06-24T01:18:35;665.20;;;631.85;;
58774;SDS011;44545;47.480;19.024;2023-06-24T01:28:20;670.45;;;636.62;;
58774;SDS011;44545;47.480;19.024;2023-06-24T01:31:39;676.95;;;642.72;;
58774;SDS011;44545;47.480;19.024;2023-06-24T01:34:53;673.80;;;639.35;;
58774;SDS011;44545;47.480;19.024;2023-06-24T01:38:19;678.90;;;644.62;;
58774;SDS011;44545;47.480;19.024;2023-06-24T01:41:41;670.38;;;636.75;;
58774;SDS011;44545;47.480;19.024;2023-06-24T01:44:47;677.83;;;643.70;;
58774;SDS011;44545;47.480;19.024;2023-06-24T01:48:00;666.58;;;632.62;;
58774;SDS011;44545;47.480;19.024;2023-06-24T01:51:07;675.65;;;641.85;;
58774;SDS011;44545;47.480;19.024;2023-06-24T01:54:11;673.60;;;640.05;;
58774;SDS011;44545;47.480;19.024;2023-06-24T01:57:19;680.35;;;645.92;;
58774;SDS011;44545;47.480;19.024;2023-06-24T02:00:23;665.00;;;631.58;;
58774;SDS011;44545;47.480;19.024;2023-06-24T02:03:26;670.67;;;637.00;;
58774;SDS011;44545;47.480;19.024;2023-06-24T02:06:30;661.72;;;628.83;;
58774;SDS011;44545;47.480;19.024;2023-06-24T02:09:33;681.17;;;646.83;;
58774;SDS011;44545;47.480;19.024;2023-06-24T02:12:36;663.37;;;629.95;;
58774;SDS011;44545;47.480;19.024;2023-06-24T02:15:40;668.60;;;634.65;;
58774;SDS011;44545;47.480;19.024;2023-06-24T02:18:43;676.72;;;642.42;;
58774;SDS011;44545;47.480;19.024;2023-06-24T02:21:46;678.17;;;643.47;;
58774;SDS011;44545;47.480;19.024;2023-06-24T02:24:50;681.33;;;646.20;;
58774;SDS011;44545;47.480;19.024;2023-06-24T02:27:53;684.60;;;649.40;;
58774;SDS011;44545;47.480;19.024;2023-06-24T02:30:57;656.92;;;624.20;;
58774;SDS011;44545;47.480;19.024;2023-06-24T02:34:00;664.55;;;631.45;;
58774;SDS011;44545;47.480;19.024;2023-06-24T02:37:03;664.75;;;631.50;;
58774;SDS011;44545;47.480;19.024;2023-06-24T02:40:07;666.85;;;633.25;;
58774;SDS011;44545;47.480;19.024;2023-06-24T02:43:10;676.03;;;642.10;;
58774;SDS011;44545;47.480;19.024;2023-06-24T02:46:12;667.17;;;633.70;;
58774;SDS011;44545;47.480;19.024;2023-06-24T02:49:18;667.12;;;633.90;;
58774;SDS011;44545;47.480;19.024;2023-06-24T02:52:22;678.70;;;643.95;;
58774;SDS011;44545;47.480;19.024;2023-06-24T02:55:25;669.60;;;636.33;;
58774;SDS011;44545;47.480;19.024;2023-06-24T02:58:29;667.72;;;634.37;;
58774;SDS011;44545;47.480;19.024;2023-06-24T03:01:34;673.80;;;639.53;;
58774;SDS011;44545;47.480;19.024;2023-06-24T03:04:41;684.45;;;649.60;;
58774;SDS011;44545;47.480;19.024;2023-06-24T03:07:43;662.22;;;629.22;;
58774;SDS011;44545;47.480;19.024;2023-06-24T03:10:47;671.33;;;638.15;;
58774;SDS011;44545;47.480;19.024;2023-06-24T03:13:50;665.88;;;632.45;;
58774;SDS011;44545;47.480;19.024;2023-06-24T03:16:53;666.22;;;632.70;;
58774;SDS011;44545;47.480;19.024;2023-06-24T03:19:56;671.15;;;637.83;;
58774;SDS011;44545;47.480;19.024;2023-06-24T03:22:58;656.37;;;623.40;;
58774;SDS011;44545;47.480;19.024;2023-06-24T03:26:01;672.83;;;638.70;;
58774;SDS011;44545;47.480;19.024;2023-06-24T03:29:05;670.70;;;636.95;;
58774;SDS011;44545;47.480;19.024;2023-06-24T03:32:09;659.05;;;625.85;;
58774;SDS011;44545;47.480;19.024;2023-06-24T03:35:12;668.40;;;635.33;;
58774;SDS011;44545;47.480;19.024;2023-06-24T03:38:15;662.28;;;628.80;;
58774;SDS011;44545;47.480;19.024;2023-06-24T03:41:17;663.28;;;629.95;;
58774;SDS011;44545;47.480;19.024;2023-06-24T03:44:20;668.72;;;635.10;;
58774;SDS011;44545;47.480;19.024;2023-06-24T03:47:22;666.80;;;633.35;;
58774;SDS011;44545;47.480;19.024;2023-06-24T03:50:25;667.42;;;634.15;;
58774;SDS011;44545;47.480;19.024;2023-06-24T03:53:27;664.72;;;631.92;;
58774;SDS011;44545;47.480;19.024;2023-06-24T03:56:30;660.97;;;628.22;;
58774;SDS011;44545;47.480;19.024;2023-06-24T03:59:32;666.75;;;633.40;;
58774;SDS011;44545;47.480;19.024;2023-06-24T04:02:36;676.63;;;642.08;;
58774;SDS011;44545;47.480;19.024;2023-06-24T04:05:38;666.12;;;632.85;;
58774;SDS011;44545;47.480;19.024;2023-06-24T04:08:41;660.80;;;627.83;;
58774;SDS011;44545;47.480;19.024;2023-06-24T04:11:45;655.35;;;622.60;;
58774;SDS011;44545;47.480;19.024;2023-06-24T04:14:47;657.67;;;624.67;;
58774;SDS011;44545;47.480;19.024;2023-06-24T04:17:50;663.40;;;629.40;;
58774;SDS011;44545;47.480;19.024;2023-06-24T04:20:52;659.37;;;625.90;;
58774;SDS011;44545;47.480;19.024;2023-06-24T04:23:55;670.47;;;636.38;;
58774;SDS011;44545;47.480;19.024;2023-06-24T04:26:58;662.35;;;629.00;;
58774;SDS011;44545;47.480;19.024;2023-06-24T04:30:02;662.38;;;628.80;;
58774;SDS011;44545;47.480;19.024;2023-06-24T04:33:05;669.25;;;635.85;;
58774;SDS011;44545;47.480;19.024;2023-06-24T04:36:08;672.22;;;638.50;;
58774;SDS011;44545;47.480;19.024;2023-06-24T04:39:11;653.97;;;621.45;;
58774;SDS011;44545;47.480;19.024;2023-06-24T04:42:14;664.45;;;630.63;;
58774;SDS011;44545;47.480;19.024;2023-06-24T04:45:17;663.80;;;630.03;;
58774;SDS011;44545;47.480;19.024;2023-06-24T04:48:19;666.53;;;632.40;;
58774;SDS011;44545;47.480;19.024;2023-06-24T04:51:21;675.47;;;641.25;;
58774;SDS011;44545;47.480;19.024;2023-06-24T04:54:24;669.70;;;635.90;;
58774;SDS011;44545;47.480;19.024;2023-06-24T04:57:27;680.28;;;645.80;;
58774;SDS011;44545;47.480;19.024;2023-06-24T05:00:33;676.83;;;642.63;;
58774;SDS011;44545;47.480;19.024;2023-06-24T05:03:35;674.78;;;640.78;;
58774;SDS011;44545;47.480;19.024;2023-06-24T05:06:38;675.10;;;640.75;;
58774;SDS011;44545;47.480;19.024;2023-06-24T05:09:40;660.20;;;626.65;;
58774;SDS011;44545;47.480;19.024;2023-06-24T05:12:43;673.55;;;639.60;;
58774;SDS011;44545;47.480;19.024;2023-06-24T05:15:45;667.15;;;633.65;;
58774;SDS011;44545;47.480;19.024;2023-06-24T05:18:48;677.60;;;643.40;;
58774;SDS011;44545;47.480;19.024;2023-06-24T05:21:50;681.95;;;647.58;;
58774;SDS011;44545;47.480;19.024;2023-06-24T05:24:52;644.78;;;612.38;;
58774;SDS011;44545;47.480;19.024;2023-06-24T05:27:55;683.72;;;649.33;;
58774;SDS011;44545;47.480;19.024;2023-06-24T05:30:57;664.75;;;631.17;;
58774;SDS011;44545;47.480;19.024;2023-06-24T05:33:59;683.45;;;648.88;;
58774;SDS011;44545;47.480;19.024;2023-06-24T05:37:02;670.62;;;637.08;;
58774;SDS011;44545;47.480;19.024;2023-06-24T05:40:04;669.20;;;635.78;;
58774;SDS011;44545;47.480;19.024;2023-06-24T05:43:09;667.28;;;634.13;;
58774;SDS011;44545;47.480;19.024;2023-06-24T05:46:12;669.72;;;636.12;;
58774;SDS011;44545;47.480;19.024;2023-06-24T05:49:15;668.90;;;635.55;;
58774;SDS011;44545;47.480;19.024;2023-06-24T05:52:17;674.05;;;640.45;;
58774;SDS011;44545;47.480;19.024;2023-06-24T05:55:19;684.75;;;650.28;;
58774;SDS011;44545;47.480;19.024;2023-06-24T05:58:22;674.00;;;640.17;;
58774;SDS011;44545;47.480;19.024;2023-06-24T06:01:24;666.47;;;632.85;;
58774;SDS011;44545;47.480;19.024;2023-06-24T06:04:27;672.05;;;638.20;;
58774;SDS011;44545;47.480;19.024;2023-06-24T06:07:30;691.28;;;656.35;;
58774;SDS011;44545;47.480;19.024;2023-06-24T06:10:32;671.72;;;637.85;;
58774;SDS011;44545;47.480;19.024;2023-06-24T06:13:35;675.75;;;641.65;;
58774;SDS011;44545;47.480;19.024;2023-06-24T06:16:37;670.95;;;637.30;;
58774;SDS011;44545;47.480;19.024;2023-06-24T06:19:39;667.40;;;633.87;;
58774;SDS011;44545;47.480;19.024;2023-06-24T06:22:43;679.22;;;645.05;;
58774;SDS011;44545;47.480;19.024;2023-06-24T06:25:45;680.63;;;646.10;;
58774;SDS011;44545;47.480;19.024;2023-06-24T06:28:50;683.90;;;649.28;;
58774;SDS011;44545;47.480;19.024;2023-06-24T06:31:54;667.05;;;633.05;;
58774;SDS011;44545;47.480;19.024;2023-06-24T06:34:59;663.58;;;629.55;;
58774;SDS011;44545;47.480;19.024;2023-06-24T06:38:01;680.00;;;645.85;;
58774;SDS011;44545;47.480;19.024;2023-06-24T06:41:04;669.20;;;635.42;;
58774;SDS011;44545;47.480;19.024;2023-06-24T06:44:06;665.88;;;632.38;;
58774;SDS011;44545;47.480;19.024;2023-06-24T06:47:10;664.75;;;630.97;;
58774;SDS011;44545;47.480;19.024;2023-06-24T06:50:12;677.08;;;642.92;;
58774;SDS011;44545;47.480;19.024;2023-06-24T06:53:15;671.30;;;637.42;;
58774;SDS011;44545;47.480;19.024;2023-06-24T06:56:22;649.60;;;616.72;;
58774;SDS011;44545;47.480;19.024;2023-06-24T06:59:30;678.03;;;643.78;;
58774;SDS011;44545;47.480;19.024;2023-06-24T07:02:32;670.20;;;636.47;;
58774;SDS011;44545;47.480;19.024;2023-06-24T07:05:35;664.63;;;631.22;;
58774;SDS011;44545;47.480;19.024;2023-06-24T07:08:40;661.65;;;628.35;;
58774;SDS011;44545;47.480;19.024;2023-06-24T07:11:43;662.28;;;628.90;;
58774;SDS011;44545;47.480;19.024;2023-06-24T07:14:45;657.22;;;624.20;;
58774;SDS011;44545;47.480;19.024;2023-06-24T07:17:47;647.87;;;615.33;;
58774;SDS011;44545;47.480;19.024;2023-06-24T07:20:49;652.28;;;619.62;;
58774;SDS011;44545;47.480;19.024;2023-06-24T07:23:52;663.78;;;630.33;;
58774;SDS011;44545;47.480;19.024;2023-06-24T07:26:54;661.78;;;628.72;;
58774;SDS011;44545;47.480;19.024;2023-06-24T07:29:57;662.17;;;628.83;;
58774;SDS011;44545;47.480;19.024;2023-06-24T07:32:59;664.35;;;631.15;;
58774;SDS011;44545;47.480;19.024;2023-06-24T07:36:07;661.53;;;628.25;;
58774;SDS011;44545;47.480;19.024;2023-06-24T07:39:12;664.63;;;631.20;;
58774;SDS011;44545;47.480;19.024;2023-06-24T07:42:15;661.85;;;628.62;;
58774;SDS011;44545;47.480;19.024;2023-06-24T07:45:20;667.72;;;634.17;;
58774;SDS011;44545;47.480;19.024;2023-06-24T07:48:23;651.80;;;618.72;;
58774;SDS011;44545;47.480;19.024;2023-06-24T07:51:25;654.45;;;621.55;;
58774;SDS011;44545;47.480;19.024;2023-06-24T07:54:29;653.83;;;620.90;;
58774;SDS011;44545;47.480;19.024;2023-06-24T07:57:31;661.65;;;628.20;;
58774;SDS011;44545;47.480;19.024;2023-06-24T08:00:33;650.28;;;617.47;;
58774;SDS011;44545;47.480;19.024;2023-06-24T08:06:40;661.10;;;627.90;;
58774;SDS011;44545;47.480;19.024;2023-06-24T08:09:43;663.58;;;630.50;;
58774;SDS011;44545;47.480;19.024;2023-06-24T08:12:45;664.47;;;630.92;;
58774;SDS011;44545;47.480;19.024;2023-06-24T08:15:48;656.87;;;623.58;;
58774;SDS011;44545;47.480;19.024;2023-06-24T08:18:50;653.25;;;620.40;;
58774;SDS011;44545;47.480;19.024;2023-06-24T08:21:53;663.22;;;629.97;;
58774;SDS011;44545;47.480;19.024;2023-06-24T08:24:55;665.35;;;631.65;;
58774;SDS011;44545;47.480;19.024;2023-06-24T08:27:57;652.05;;;619.35;;
58774;SDS011;44545;47.480;19.024;2023-06-24T08:31:00;652.72;;;619.85;;
58774;SDS011;44545;47.480;19.024;2023-06-24T08:34:02;661.17;;;627.92;;
58774;SDS011;44545;47.480;19.024;2023-06-24T08:37:04;661.92;;;628.60;;
58774;SDS011;44545;47.480;19.024;2023-06-24T08:40:07;662.78;;;629.38;;
58774;SDS011;44545;47.480;19.024;2023-06-24T08:43:10;656.33;;;623.15;;
58774;SDS011;44545;47.480;19.024;2023-06-24T08:46:13;658.97;;;625.50;;
58774;SDS011;44545;47.480;19.024;2023-06-24T08:52:30;640.88;;;608.50;;
58774;SDS011;44545;47.480;19.024;2023-06-24T08:55:35;647.45;;;614.65;;
58774;SDS011;44545;47.480;19.024;2023-06-24T08:58:41;654.62;;;621.53;;
58774;SDS011;44545;47.480;19.024;2023-06-24T09:01:44;654.70;;;621.33;;
58774;SDS011;44545;47.480;19.024;2023-06-24T09:04:49;644.53;;;612.22;;
58774;SDS011;44545;47.480;19.024;2023-06-24T09:10:55;647.08;;;614.25;;
58774;SDS011;44545;47.480;19.024;2023-06-24T09:13:58;665.80;;;631.92;;
58774;SDS011;44545;47.480;19.024;2023-06-24T09:17:01;681.13;;;646.50;;
58774;SDS011;44545;47.480;19.024;2023-06-24T09:20:04;675.12;;;640.88;;
58774;SDS011;44545;47.480;19.024;2023-06-24T09:23:08;658.72;;;625.60;;
58774;SDS011;44545;47.480;19.024;2023-06-24T09:26:10;663.97;;;630.47;;
58774;SDS011;44545;47.480;19.024;2023-06-24T09:29:13;667.42;;;633.92;;
58774;SDS011;44545;47.480;19.024;2023-06-24T09:32:16;658.08;;;624.80;;
58774;SDS011;44545;47.480;19.024;2023-06-24T09:35:20;657.45;;;624.40;;
58774;SDS011;44545;47.480;19.024;2023-06-24T09:38:33;656.73;;;623.70;;
58774;SDS011;44545;47.480;19.024;2023-06-24T09:41:40;649.70;;;617.00;;
58774;SDS011;44545;47.480;19.024;2023-06-24T09:44:43;653.20;;;620.25;;
58774;SDS011;44545;47.480;19.024;2023-06-24T09:47:46;651.25;;;617.83;;
58774;SDS011;44545;47.480;19.024;2023-06-24T09:50:48;639.50;;;607.12;;
58774;SDS011;44545;47.480;19.024;2023-06-24T09:53:51;647.95;;;614.97;;
58774;SDS011;44545;47.480;19.024;2023-06-24T09:56:58;638.25;;;605.67;;
58774;SDS011;44545;47.480;19.024;2023-06-24T10:00:03;639.67;;;607.28;;
58774;SDS011;44545;47.480;19.024;2023-06-24T10:03:06;631.50;;;599.92;;
58774;SDS011;44545;47.480;19.024;2023-06-24T10:06:09;635.58;;;603.88;;
58774;SDS011;44545;47.480;19.024;2023-06-24T10:09:12;626.72;;;595.30;;
58774;SDS011;44545;47.480;19.024;2023-06-24T10:12:19;616.20;;;585.00;;
58774;SDS011;44545;47.480;19.024;2023-06-24T10:15:21;625.78;;;593.87;;
58774;SDS011;44545;47.480;19.024;2023-06-24T10:21:45;605.40;;;574.15;;
58774;SDS011;44545;47.480;19.024;2023-06-24T10:24:58;586.17;;;556.33;;
58774;SDS011;44545;47.480;19.024;2023-06-24T10:28:02;578.03;;;548.62;;
58774;SDS011;44545;47.480;19.024;2023-06-24T10:31:05;576.92;;;547.60;;
58774;SDS011;44545;47.480;19.024;2023-06-24T10:37:26;573.30;;;544.20;;
58774;SDS011;44545;47.480;19.024;2023-06-24T10:40:35;568.78;;;539.90;;
58774;SDS011;44545;47.480;19.024;2023-06-24T10:43:39;568.70;;;539.87;;
58774;SDS011;44545;47.480;19.024;2023-06-24T10:46:42;564.37;;;535.35;;
58774;SDS011;44545;47.480;19.024;2023-06-24T10:49:45;549.33;;;521.40;;
58774;SDS011;44545;47.480;19.024;2023-06-24T10:52:48;566.95;;;537.92;;
58774;SDS011;44545;47.480;19.024;2023-06-24T10:55:56;582.45;;;552.83;;
58774;SDS011;44545;47.480;19.024;2023-06-24T11:02:02;577.30;;;547.97;;
58774;SDS011;44545;47.480;19.024;2023-06-24T11:05:04;571.15;;;541.97;;
58774;SDS011;44545;47.480;19.024;2023-06-24T11:08:08;581.15;;;551.75;;
58774;SDS011;44545;47.480;19.024;2023-06-24T11:11:17;570.65;;;541.35;;
58774;SDS011;44545;47.480;19.024;2023-06-24T11:14:20;564.78;;;536.15;;
58774;SDS011;44545;47.480;19.024;2023-06-24T11:17:23;570.42;;;541.50;;
58774;SDS011;44545;47.480;19.024;2023-06-24T11:20:26;583.60;;;554.00;;
58774;SDS011;44545;47.480;19.024;2023-06-24T11:23:28;597.30;;;566.85;;
58774;SDS011;44545;47.480;19.024;2023-06-24T11:26:32;602.30;;;571.40;;
58774;SDS011;44545;47.480;19.024;2023-06-24T11:29:34;599.05;;;568.55;;
58774;SDS011;44545;47.480;19.024;2023-06-24T11:32:43;621.55;;;590.00;;
58774;SDS011;44545;47.480;19.024;2023-06-24T11:35:47;621.00;;;589.13;;
58774;SDS011;44545;47.480;19.024;2023-06-24T11:38:50;628.45;;;596.50;;
58774;SDS011;44545;47.480;19.024;2023-06-24T11:41:52;628.47;;;596.58;;
58774;SDS011;44545;47.480;19.024;2023-06-24T11:44:59;637.55;;;604.75;;
58774;SDS011;44545;47.480;19.024;2023-06-24T11:48:17;648.50;;;615.42;;
58774;SDS011;44545;47.480;19.024;2023-06-24T11:51:23;640.15;;;607.60;;
58774;SDS011;44545;47.480;19.024;2023-06-24T11:54:25;641.50;;;609.20;;
58774;SDS011;44545;47.480;19.024;2023-06-24T11:57:50;660.20;;;625.67;;
58774;SDS011;44545;47.480;19.024;2023-06-24T12:00:53;647.92;;;614.63;;
58774;SDS011;44545;47.480;19.024;2023-06-24T12:04:01;652.83;;;619.13;;
58774;SDS011;44545;47.480;19.024;2023-06-24T12:07:11;640.12;;;607.67;;
58774;SDS011;44545;47.480;19.024;2023-06-24T12:10:14;633.70;;;601.90;;
58774;SDS011;44545;47.480;19.024;2023-06-24T12:13:16;628.70;;;597.17;;
58774;SDS011;44545;47.480;19.024;2023-06-24T12:16:18;633.12;;;601.85;;
58774;SDS011;44545;47.480;19.024;2023-06-24T12:19:21;642.63;;;610.08;;
58774;SDS011;44545;47.480;19.024;2023-06-24T12:22:24;644.03;;;611.42;;
58774;SDS011;44545;47.480;19.024;2023-06-24T12:25:26;648.72;;;615.70;;
58774;SDS011;44545;47.480;19.024;2023-06-24T12:28:28;646.42;;;613.58;;
58774;SDS011;44545;47.480;19.024;2023-06-24T12:31:31;640.90;;;608.30;;
58774;SDS011;44545;47.480;19.024;2023-06-24T12:34:33;637.58;;;604.97;;
58774;SDS011;44545;47.480;19.024;2023-06-24T12:37:36;638.25;;;605.53;;
58774;SDS011;44545;47.480;19.024;2023-06-24T12:40:39;634.05;;;602.00;;
58774;SDS011;44545;47.480;19.024;2023-06-24T12:43:41;640.40;;;607.67;;
58774;SDS011;44545;47.480;19.024;2023-06-24T12:46:43;639.72;;;607.30;;
58774;SDS011;44545;47.480;19.024;2023-06-24T12:49:46;644.20;;;611.35;;
58774;SDS011;44545;47.480;19.024;2023-06-24T12:52:48;646.33;;;613.40;;
58774;SDS011;44545;47.480;19.024;2023-06-24T12:55:50;642.03;;;609.53;;
58774;SDS011;44545;47.480;19.024;2023-06-24T12:58:53;647.95;;;615.17;;
58774;SDS011;44545;47.480;19.024;2023-06-24T13:01:55;645.65;;;613.22;;
58774;SDS011;44545;47.480;19.024;2023-06-24T13:04:58;652.45;;;619.60;;
58774;SDS011;44545;47.480;19.024;2023-06-24T13:08:00;653.72;;;620.78;;
58774;SDS011;44545;47.480;19.024;2023-06-24T13:11:03;657.35;;;624.17;;
58774;SDS011;44545;47.480;19.024;2023-06-24T13:14:05;647.42;;;614.90;;
58774;SDS011;44545;47.480;19.024;2023-06-24T13:17:07;649.47;;;616.67;;
58774;SDS011;44545;47.480;19.024;2023-06-24T13:20:09;655.63;;;622.63;;
58774;SDS011;44545;47.480;19.024;2023-06-24T13:23:12;659.78;;;626.67;;
58774;SDS011;44545;47.480;19.024;2023-06-24T13:26:15;644.08;;;611.72;;
58774;SDS011;44545;47.480;19.024;2023-06-24T13:29:17;652.83;;;619.95;;
58774;SDS011;44545;47.480;19.024;2023-06-24T13:32:21;653.83;;;620.87;;
58774;SDS011;44545;47.480;19.024;2023-06-24T13:35:25;644.20;;;611.58;;
58774;SDS011;44545;47.480;19.024;2023-06-24T13:38:27;660.03;;;626.85;;
58774;SDS011;44545;47.480;19.024;2023-06-24T13:41:29;653.72;;;620.83;;
58774;SDS011;44545;47.480;19.024;2023-06-24T13:44:34;658.45;;;625.40;;
58774;SDS011;44545;47.480;19.024;2023-06-24T13:47:36;655.50;;;622.42;;
58774;SDS011;44545;47.480;19.024;2023-06-24T13:50:39;663.80;;;630.15;;
58774;SDS011;44545;47.480;19.024;2023-06-24T13:53:41;645.95;;;613.33;;
58774;SDS011;44545;47.480;19.024;2023-06-24T13:56:43;663.47;;;630.08;;
58774;SDS011;44545;47.480;19.024;2023-06-24T13:59:46;663.63;;;630.30;;
58774;SDS011;44545;47.480;19.024;2023-06-24T14:02:48;662.62;;;629.38;;
58774;SDS011;44545;47.480;19.024;2023-06-24T14:05:51;652.88;;;619.95;;
58774;SDS011;44545;47.480;19.024;2023-06-24T14:08:53;655.03;;;621.92;;
58774;SDS011;44545;47.480;19.024;2023-06-24T14:11:56;656.85;;;623.60;;
58774;SDS011;44545;47.480;19.024;2023-06-24T14:14:59;645.08;;;612.53;;
58774;SDS011;44545;47.480;19.024;2023-06-24T14:18:02;648.67;;;615.88;;
58774;SDS011;44545;47.480;19.024;2023-06-24T14:21:05;646.67;;;613.87;;
58774;SDS011;44545;47.480;19.024;2023-06-24T14:24:08;655.03;;;621.83;;
58774;SDS011;44545;47.480;19.024;2023-06-24T14:27:18;646.33;;;613.75;;
58774;SDS011;44545;47.480;19.024;2023-06-24T14:30:20;656.90;;;623.60;;
58774;SDS011;44545;47.480;19.024;2023-06-24T14:33:23;641.58;;;609.20;;
58774;SDS011;44545;47.480;19.024;2023-06-24T14:36:25;659.17;;;625.92;;
58774;SDS011;44545;47.480;19.024;2023-06-24T14:39:27;663.40;;;629.87;;
58774;SDS011;44545;47.480;19.024;2023-06-24T14:42:32;658.55;;;625.33;;
58774;SDS011;44545;47.480;19.024;2023-06-24T14:45:34;652.13;;;619.45;;
58774;SDS011;44545;47.480;19.024;2023-06-24T14:48:37;663.85;;;630.17;;
58774;SDS011;44545;47.480;19.024;2023-06-24T14:51:39;653.25;;;620.33;;
58774;SDS011;44545;47.480;19.024;2023-06-24T14:54:41;661.30;;;627.97;;
58774;SDS011;44545;47.480;19.024;2023-06-24T14:57:43;672.55;;;638.30;;
58774;SDS011;44545;47.480;19.024;2023-06-24T15:00:46;672.35;;;638.12;;
58774;SDS011;44545;47.480;19.024;2023-06-24T15:03:48;676.03;;;641.83;;
58774;SDS011;44545;47.480;19.024;2023-06-24T15:06:51;672.15;;;638.10;;
58774;SDS011;44545;47.480;19.024;2023-06-24T15:09:53;667.25;;;633.38;;
58774;SDS011;44545;47.480;19.024;2023-06-24T15:12:56;670.65;;;636.83;;
58774;SDS011;44545;47.480;19.024;2023-06-24T15:15:58;659.13;;;625.70;;
58774;SDS011;44545;47.480;19.024;2023-06-24T15:19:01;666.15;;;632.50;;
58774;SDS011;44545;47.480;19.024;2023-06-24T15:22:03;668.15;;;634.35;;
58774;SDS011;44545;47.480;19.024;2023-06-24T15:25:05;666.05;;;632.33;;
58774;SDS011;44545;47.480;19.024;2023-06-24T15:28:08;667.90;;;634.08;;
58774;SDS011;44545;47.480;19.024;2023-06-24T15:31:11;665.67;;;632.00;;
58774;SDS011;44545;47.480;19.024;2023-06-24T15:34:13;661.92;;;628.65;;
58774;SDS011;44545;47.480;19.024;2023-06-24T15:37:15;658.62;;;625.40;;
58774;SDS011;44545;47.480;19.024;2023-06-24T15:40:18;664.42;;;630.83;;
58774;SDS011;44545;47.480;19.024;2023-06-24T15:43:20;667.92;;;634.13;;
58774;SDS011;44545;47.480;19.024;2023-06-24T15:46:22;661.20;;;627.85;;
58774;SDS011;44545;47.480;19.024;2023-06-24T15:49:25;658.92;;;625.62;;
58774;SDS011;44545;47.480;19.024;2023-06-24T15:52:27;666.45;;;632.65;;
58774;SDS011;44545;47.480;19.024;2023-06-24T15:55:30;652.22;;;619.22;;
58774;SDS011;44545;47.480;19.024;2023-06-24T15:58:32;659.42;;;626.03;;
58774;SDS011;44545;47.480;19.024;2023-06-24T16:01:35;665.50;;;631.97;;
58774;SDS011;44545;47.480;19.024;2023-06-24T16:04:37;662.83;;;629.25;;
58774;SDS011;44545;47.480;19.024;2023-06-24T16:07:40;661.85;;;628.35;;
58774;SDS011;44545;47.480;19.024;2023-06-24T16:10:42;659.83;;;626.47;;
58774;SDS011;44545;47.480;19.024;2023-06-24T16:13:45;664.00;;;630.28;;
58774;SDS011;44545;47.480;19.024;2023-06-24T16:16:48;644.80;;;612.25;;
58774;SDS011;44545;47.480;19.024;2023-06-24T16:19:50;662.12;;;628.47;;
58774;SDS011;44545;47.480;19.024;2023-06-24T16:22:53;649.97;;;617.03;;
58774;SDS011;44545;47.480;19.024;2023-06-24T16:25:55;662.83;;;629.10;;
58774;SDS011;44545;47.480;19.024;2023-06-24T16:28:58;656.10;;;622.70;;
58774;SDS011;44545;47.480;19.024;2023-06-24T16:32:00;655.47;;;621.95;;
58774;SDS011;44545;47.480;19.024;2023-06-24T16:35:03;648.60;;;615.70;;
58774;SDS011;44545;47.480;19.024;2023-06-24T16:38:05;661.10;;;627.47;;
58774;SDS011;44545;47.480;19.024;2023-06-24T16:41:08;656.92;;;623.40;;
58774;SDS011;44545;47.480;19.024;2023-06-24T16:44:10;659.37;;;626.05;;
58774;SDS011;44545;47.480;19.024;2023-06-24T16:47:13;668.20;;;633.47;;
58774;SDS011;44545;47.480;19.024;2023-06-24T16:50:15;667.03;;;632.95;;
58774;SDS011;44545;47.480;19.024;2023-06-24T16:53:17;674.35;;;640.17;;
58774;SDS011;44545;47.480;19.024;2023-06-24T16:56:20;672.63;;;638.53;;
58774;SDS011;44545;47.480;19.024;2023-06-24T16:59:23;673.22;;;639.10;;
58774;SDS011;44545;47.480;19.024;2023-06-24T17:02:25;667.47;;;633.70;;
58774;SDS011;44545;47.480;19.024;2023-06-24T17:05:28;667.20;;;633.78;;
58774;SDS011;44545;47.480;19.024;2023-06-24T17:08:30;669.13;;;635.17;;
58774;SDS011;44545;47.480;19.024;2023-06-24T17:11:32;670.17;;;636.35;;
58774;SDS011;44545;47.480;19.024;2023-06-24T17:14:34;674.20;;;640.22;;
58774;SDS011;44545;47.480;19.024;2023-06-24T17:17:37;671.25;;;637.15;;
58774;SDS011;44545;47.480;19.024;2023-06-24T17:20:39;652.83;;;620.12;;
58774;SDS011;44545;47.480;19.024;2023-06-24T17:23:42;665.30;;;631.60;;
58774;SDS011;44545;47.480;19.024;2023-06-24T17:26:44;665.75;;;632.03;;
58774;SDS011;44545;47.480;19.024;2023-06-24T17:29:46;668.65;;;634.67;;
58774;SDS011;44545;47.480;19.024;2023-06-24T17:32:50;671.10;;;637.33;;